Sanger, California
Current Conditions -  °F | °C
As of 12:53 PM on Thursday 23 Oct 2014 (Local Time) from KFAT Reporting Station
Scattered Clouds Scattered Clouds  
Wind Chill: 78°   Ceiling: Unl
Heat Index: 78°   Visibility: 10mi
Dew Point: 43°   Wind: 3mph
Humidity: 29%   Direction: NA
Pressure: 30.04"   Gusts: NA
Location:  36.71°N, 119.55°W
Report Text: KFAT 231953Z VRB03KT 10SM FEW130 SCT250 26/06 A3004 RMK AO2 SLP169 MTNS OBSC HZ DSNT E-S T02560061
Loading
Personal Weather Stations






























Interactive Weather Map
Tropical Storm Tracking
New forecast layout! Learn more

10-Day Weather Forecast

Advertisements
Track Severe Weather on mobile